Laramie Rgnl Information

FAA: LAR - ICAO: KLAR

Laramie Rgnl (Airport) Location

State Wyoming
County Albany
City Laramie
Laramie Rgnl (Airport) is 3 miles west of Laramie, WY.
Latitude 41-18-43.4000N
Longitude 105-40-30.0000W
Elevation 7,283ft

Laramie Rgnl METARs

METAR KLAR 281353Z AUTO 00000KT 10SM BKN055 M01/M04 A3025 RMK AO2 SLP234 T10111044
Altimeter 30.25"
Temperature -1.1°C (30.0°F)
Wind 0° at 0KT
Clouds broken at 5,500ft
Visibility 10.0mi
Time observed: 2021-10-28T13:53:00Z

Laramie Rgnl (Airport) Details

Status Operational
Activation October 1938
Ownership Public
Usage Public
Chart CHEYENNE
ATC on-site No
Beacon schedule sunset-sunrise
Beacon color clear green

Laramie Rgnl (Airport) Contacts

Owner LARAMIE REGIONAL AIRPORT BOARD
Owner address 555 GENERAL BREES RD, LARAMIE, WY 82070
Owner phone 307-742-4164
Manager MIKE LASALLE
Manager address PO BOX 756, EVANSTON, WY 82931
Manager phone 307-789-2256

Laramie Rgnl Radio Frequencies

Laramie Rgnl (Airport) Radio Frequencies

UNICOM 123.05
Common traffic advisory frequency (CTAF) 123.05